• Join FlightAware (Why Join?)
  • Login
  • US Flag 
07:24AM EDT


 

Airport Tracker/Info


-or-


 

Live Flight TrackerFlight Track Log ✈ THU850 ✈ 16-Jul-2013 ✈ CYAG - CYQT

Flight Track Log - Related Links

Times and Time Zones

All times are in EDT time to prevent confusion due to time zone crossing. See the THU850 flight status page for this flight to view local times or setup timezone preferences in your user account.

Time Position Orientation Groundspeed Altitude Reporting Facility
EDT Latitude Longitude Course Direction KTS MPH feet Rate Location/Type
10:55AM 48.7167 -93.2833 90° East 230 265 8,000  Level Winnipeg Center
10:56AM 48.7167 -93.1833 90° East 240 276 9,800 1,560 Climbing Winnipeg Center
10:57AM 48.7000 -93.0833 104° East 240 276 11,200 1,440 Climbing Winnipeg Center
10:58AM 48.7000 -92.9833 90° East 250 288 12,700 1,320 Climbing Winnipeg Center
10:59AM 48.6833 -92.8833 104° East 250 288 13,900 1,080 Climbing Winnipeg Center
11:00AM 48.6833 -92.7667 90° East 260 299 14,900 900 Climbing Winnipeg Center
11:01AM 48.6833 -92.6667 90° East 270 311 15,800 840 Climbing Winnipeg Center
11:02AM 48.6667 -92.5333 101° East 270 311 16,600 840 Climbing Winnipeg Center
11:03AM 48.6500 -92.4333 104° East 270 311 17,500 720 Climbing Winnipeg Center
11:04AM 48.6500 -92.3167 90° East 280 322 18,100 660 Climbing Winnipeg Center
11:05AM 48.6333 -92.1833 101° East 290 334 18,900 420 Climbing Winnipeg Center
11:06AM 48.6167 -92.0833 104° East 300 345 19,000  Climbing Winnipeg Center
11:07AM 48.6167 -91.9333 90° East 310 357 19,000  Level Winnipeg Center
11:08AM 48.6000 -91.8000 101° East 320 368 19,000  Level Winnipeg Center
11:09AM 48.5833 -91.6500 99° East 320 368 19,000 -60 Level Winnipeg Center
11:10AM 48.5833 -91.5333 90° East 330 380 18,900  Descending Winnipeg Center
11:11AM 48.5667 -91.3833 99° East 320 368 19,100  Climbing Winnipeg Center
11:12AM 48.5500 -91.2500 101° East 320 368 19,000 -60 Descending Winnipeg Center
11:13AM 48.5333 -91.1333 102° East 330 380 19,000  Level Winnipeg Center
11:14AM 48.5167 -90.9833 99° East 330 380 19,000  Level Winnipeg Center
11:15AM 48.5000 -90.8500 101° East 320 368 19,000  Level Winnipeg Center
11:16AM 48.5000 -90.7333 90° East 320 368 19,000  Level Winnipeg Center
11:17AM 48.4833 -90.5833 99° East 320 368 19,000  Level Winnipeg Center
11:18AM 48.4667 -90.4500 101° East 320 368 19,000  Level Winnipeg Center
11:19AM 48.4667 -90.3333 90° East 320 368 19,000 -600 Level Winnipeg Center
11:20AM 48.4333 -90.1833 108° East 330 380 17,800 -1,560 Descending Winnipeg Center
11:21AM 48.3833 -90.0333 117° Southeast 350 403 15,900 -2,820 Descending Winnipeg Center
11:22AM 48.3667 -89.8833 99° East 340 391 12,200 -3,840 Descending Winnipeg Center
11:23AM 48.3500 -89.7667 102° East 320 368 8,300 -3,540 Descending Winnipeg Center
11:24AM 48.3333 -89.6500 102° East 300 345 5,200 -2,580 Descending Winnipeg Center
11:25AM 48.3167 -89.5500 104° East 260 299 3,200 -1,080 Descending Winnipeg Center
11:26AM 48.3167 -89.4667 90° East 190 219 3,100 -600 Descending Winnipeg Center
11:27AM 48.3333 -89.3833 73° East 160 184 2,000 -900 Descending Winnipeg Center
11:28AM 48.3500 -89.3333 63° Northeast 140 161 1,400 -660 Descending Winnipeg Center
11:29AM 48.3667 -89.2833 63° Northeast 110 127 700 -720 Descending Winnipeg Center